Time;durP1;ratioP1;P1;durP2;ratioP2;P2;SDS_P1;SDS_P2;PMS_P1;PMS_P2;Temp;Humidity;BMP_temperature;BMP_pressure;BME280_temperature;BME280_humidity;BME280_pressure;Samples;Min_cycle;Max_cycle;Signal;HPM_P1;HPM_P2
2021/07/25 00:02:21;;;;;;;4.10;3.70;;;25.60;73.50;;;;;;5006065;28;20597;-58
2021/07/25 00:04:48;;;;;;;4.68;3.75;;;25.60;73.60;;;;;;4994013;28;20551;-58
2021/07/25 00:07:14;;;;;;;4.05;3.75;;;25.60;73.60;;;;;;4997054;28;20545;-59
2021/07/25 00:09:41;;;;;;;4.20;3.90;;;25.60;73.60;;;;;;4993448;28;20627;-59
2021/07/25 00:12:07;;;;;;;4.03;3.65;;;25.60;73.20;;;;;;5004968;28;20568;-59
2021/07/25 00:14:34;;;;;;;4.10;3.80;;;25.60;73.20;;;;;;4993109;28;20599;-59
2021/07/25 00:17:00;;;;;;;3.80;3.42;;;25.60;73.30;;;;;;5004284;28;20527;-59
2021/07/25 00:19:27;;;;;;;4.45;4.05;;;25.60;73.40;;;;;;5009612;28;20285;-59
2021/07/25 00:21:54;;;;;;;4.22;3.83;;;25.60;73.30;;;;;;5004348;28;20202;-59
2021/07/25 00:24:24;;;;;;;4.32;3.92;;;25.60;73.30;;;;;;4995544;28;20277;-59
2021/07/25 00:26:51;;;;;;;4.30;3.60;;;25.60;73.30;;;;;;4981938;28;20258;-59
2021/07/25 00:29:17;;;;;;;3.88;3.50;;;25.60;73.30;;;;;;4993791;28;20633;-59
2021/07/25 00:31:44;;;;;;;4.05;3.70;;;25.60;73.30;;;;;;4999246;28;20534;-59
2021/07/25 00:34:10;;;;;;;4.43;3.78;;;25.60;73.30;;;;;;5001660;28;20664;-58
2021/07/25 00:36:36;;;;;;;3.70;3.35;;;25.60;73.30;;;;;;4994705;28;20570;-59
2021/07/25 00:39:07;;;;;;;3.63;3.33;;;25.60;73.30;;;;;;5007854;28;20297;-58
2021/07/25 00:41:34;;;;;;;3.95;3.63;;;25.60;73.30;;;;;;4994763;28;20218;-59
2021/07/25 00:44:00;;;;;;;3.83;3.53;;;25.60;73.30;;;;;;4995787;28;20212;-59
2021/07/25 00:46:27;;;;;;;3.97;3.67;;;25.60;73.30;;;;;;4998726;28;20199;-59
2021/07/25 00:48:53;;;;;;;3.63;3.33;;;25.60;73.30;;;;;;4995336;28;20218;-59
2021/07/25 00:51:19;;;;;;;4.10;3.70;;;25.60;73.30;;;;;;4996976;28;20199;-58
2021/07/25 00:53:46;;;;;;;3.85;3.55;;;25.60;73.30;;;;;;4995900;28;20210;-59
2021/07/25 00:56:12;;;;;;;3.40;3.10;;;25.60;73.20;;;;;;4995576;28;20220;-59
2021/07/25 00:58:39;;;;;;;3.92;3.63;;;25.60;73.20;;;;;;4997340;28;20313;-59
2021/07/25 01:01:05;;;;;;;4.00;3.60;;;25.60;73.10;;;;;;5008189;28;20358;-59
2021/07/25 01:03:32;;;;;;;3.20;2.90;;;25.60;73.20;;;;;;5003543;28;20218;-59
2021/07/25 01:05:58;;;;;;;3.50;3.20;;;25.60;73.10;;;;;;5012603;28;20219;-59
2021/07/25 01:08:25;;;;;;;3.63;3.33;;;25.60;73.00;;;;;;5000917;28;20206;-58
2021/07/25 01:10:51;;;;;;;3.53;3.22;;;25.60;73.10;;;;;;5005159;28;20205;-58
2021/07/25 01:13:18;;;;;;;3.92;3.50;;;25.60;73.10;;;;;;5000896;28;20196;-58
2021/07/25 01:15:44;;;;;;;3.83;3.35;;;25.60;73.10;;;;;;5011861;28;20292;-58
2021/07/25 01:18:11;;;;;;;3.45;3.15;;;25.60;73.10;;;;;;4995737;28;20204;-58
2021/07/25 01:20:37;;;;;;;3.58;3.28;;;25.60;73.10;;;;;;4994165;28;20242;-58
2021/07/25 01:23:04;;;;;;;4.05;3.65;;;25.60;73.10;;;;;;4999846;28;20204;-58
2021/07/25 01:25:30;;;;;;;4.13;3.47;;;25.60;73.10;;;;;;5006928;28;20222;-58
2021/07/25 01:27:56;;;;;;;4.00;3.60;;;25.60;73.30;;;;;;5003954;28;20263;-58
2021/07/25 01:30:23;;;;;;;3.60;3.30;;;25.60;73.20;;;;;;5008286;28;20215;-58
2021/07/25 01:32:49;;;;;;;3.78;3.42;;;25.60;73.10;;;;;;5007424;28;20222;-58
2021/07/25 01:35:16;;;;;;;3.65;3.35;;;25.60;73.10;;;;;;4993610;28;20224;-58
2021/07/25 01:37:42;;;;;;;4.55;3.70;;;25.60;73.10;;;;;;4993094;28;20206;-58
2021/07/25 01:40:09;;;;;;;3.78;3.47;;;25.60;73.20;;;;;;4984718;28;20225;-58
2021/07/25 01:42:35;;;;;;;3.65;3.15;;;25.60;73.10;;;;;;5011293;28;20199;-58
2021/07/25 01:45:03;;;;;;;3.40;3.10;;;25.60;73.20;;;;;;4998949;28;20226;-58
2021/07/25 01:47:29;;;;;;;3.72;3.30;;;25.60;73.10;;;;;;5001070;28;20208;-58
2021/07/25 01:49:56;;;;;;;3.97;3.60;;;25.60;73.10;;;;;;4994282;28;20577;-58
2021/07/25 01:52:22;;;;;;;3.67;3.38;;;25.60;73.20;;;;;;4990784;28;20291;-58
2021/07/25 01:54:48;;;;;;;3.88;3.53;;;25.60;73.30;;;;;;4992589;28;20224;-58
2021/07/25 01:57:15;;;;;;;3.53;3.22;;;25.60;73.30;;;;;;4997402;28;20533;-58
2021/07/25 01:59:41;;;;;;;3.65;3.28;;;25.60;73.10;;;;;;5006710;28;20554;-58
2021/07/25 02:02:08;;;;;;;3.42;3.13;;;25.60;73.20;;;;;;4992154;28;20214;-58
2021/07/25 02:04:34;;;;;;;3.42;3.10;;;25.60;73.90;;;;;;5000250;28;20239;-58
2021/07/25 02:07:01;;;;;;;3.38;3.08;;;25.60;73.10;;;;;;4993099;28;20210;-58
2021/07/25 02:09:27;;;;;;;3.40;3.10;;;25.60;73.10;;;;;;4996186;28;20195;-58
2021/07/25 02:11:53;;;;;;;3.17;2.97;;;25.60;73.10;;;;;;4987415;28;20213;-58
2021/07/25 02:14:20;;;;;;;3.90;3.22;;;25.60;73.20;;;;;;5006777;28;20242;-58
2021/07/25 02:16:46;;;;;;;4.35;3.30;;;25.60;73.10;;;;;;5002220;28;20206;-58
2021/07/25 02:19:13;;;;;;;3.80;3.40;;;25.60;73.10;;;;;;4992999;28;20208;-58
2021/07/25 02:21:39;;;;;;;3.70;3.35;;;25.60;73.00;;;;;;5000856;28;20245;-58
2021/07/25 02:24:06;;;;;;;3.25;2.95;;;25.60;73.00;;;;;;5007296;28;20683;-57
2021/07/25 02:26:32;;;;;;;3.88;3.50;;;25.60;73.10;;;;;;5004119;28;20578;-58
2021/07/25 02:28:59;;;;;;;3.45;3.15;;;25.60;73.50;;;;;;5002378;28;20656;-58
2021/07/25 02:31:25;;;;;;;3.50;3.10;;;25.60;73.30;;;;;;5005151;28;20214;-58
2021/07/25 02:33:52;;;;;;;4.80;3.15;;;25.60;73.30;;;;;;5004010;28;20542;-58
2021/07/25 02:36:18;;;;;;;5.32;3.40;;;25.60;73.20;;;;;;4999586;28;20576;-58
2021/07/25 02:38:45;;;;;;;3.78;3.25;;;25.60;73.20;;;;;;4991886;28;20674;-58
2021/07/25 02:41:11;;;;;;;3.28;2.92;;;25.60;73.20;;;;;;4994017;28;20282;-58
2021/07/25 02:43:37;;;;;;;3.60;3.30;;;25.60;73.30;;;;;;5002593;28;20214;-58
2021/07/25 02:46:04;;;;;;;3.72;3.30;;;25.60;73.30;;;;;;5004945;28;20213;-58
2021/07/25 02:48:30;;;;;;;3.92;3.10;;;25.60;73.30;;;;;;4999713;28;20205;-58
2021/07/25 02:50:58;;;;;;;3.38;2.92;;;25.60;73.40;;;;;;5009341;28;20203;-58
2021/07/25 02:53:24;;;;;;;3.30;3.00;;;25.60;73.50;;;;;;4998941;28;20211;-58
2021/07/25 02:55:51;;;;;;;3.25;2.95;;;25.60;73.50;;;;;;5008621;28;20206;-57
2021/07/25 02:58:17;;;;;;;3.65;3.35;;;25.60;73.50;;;;;;4992992;28;20202;-58
2021/07/25 03:00:43;;;;;;;3.15;2.85;;;25.60;73.50;;;;;;5000737;28;20235;-58
2021/07/25 03:03:10;;;;;;;4.65;2.80;;;25.60;73.50;;;;;;4993572;28;20499;-58
2021/07/25 03:05:36;;;;;;;3.80;3.42;;;25.60;73.50;;;;;;4995774;28;20598;-58
2021/07/25 03:08:03;;;;;;;3.88;2.75;;;25.60;73.40;;;;;;5000525;28;20270;-58
2021/07/25 03:10:29;;;;;;;3.83;3.20;;;25.60;73.40;;;;;;5003105;28;20213;-58
2021/07/25 03:12:56;;;;;;;3.72;3.20;;;25.60;73.50;;;;;;4997896;28;20208;-58
2021/07/25 03:15:22;;;;;;;3.40;3.10;;;25.60;73.50;;;;;;5008795;28;20223;-59
2021/07/25 03:17:48;;;;;;;3.58;3.17;;;25.60;73.50;;;;;;5002656;28;20458;-58
2021/07/25 03:20:15;;;;;;;3.38;3.08;;;25.60;73.50;;;;;;4998837;28;20245;-58
2021/07/25 03:22:42;;;;;;;3.50;3.20;;;25.60;73.60;;;;;;5002214;28;20207;-58
2021/07/25 03:25:08;;;;;;;3.50;3.20;;;25.60;73.50;;;;;;5008997;28;20593;-58
2021/07/25 03:27:35;;;;;;;3.65;2.85;;;25.60;73.60;;;;;;4997719;28;20693;-58
2021/07/25 03:30:01;;;;;;;3.10;2.90;;;25.60;73.50;;;;;;4991152;28;20208;-58
2021/07/25 03:32:27;;;;;;;3.25;2.88;;;25.60;73.50;;;;;;4991863;28;20656;-58
2021/07/25 03:34:54;;;;;;;3.20;2.92;;;25.60;73.60;;;;;;4994400;28;20237;-58
2021/07/25 03:37:20;;;;;;;3.35;2.83;;;25.60;73.60;;;;;;4999660;28;20203;-59
2021/07/25 03:39:49;;;;;;;3.80;3.28;;;25.60;73.60;;;;;;4987583;28;20667;-59
2021/07/25 03:42:16;;;;;;;3.58;3.00;;;25.60;73.70;;;;;;4990896;28;20222;-58
2021/07/25 03:44:42;;;;;;;3.10;2.90;;;25.60;74.50;;;;;;4992940;28;20228;-59
2021/07/25 03:47:09;;;;;;;3.08;2.80;;;25.60;73.20;;;;;;5002412;28;20690;-59
2021/07/25 03:49:35;;;;;;;3.20;2.70;;;25.60;73.50;;;;;;4990374;28;20200;-59
2021/07/25 03:52:01;;;;;;;2.70;2.50;;;25.60;73.70;;;;;;5003595;28;20609;-59
2021/07/25 03:54:28;;;;;;;2.50;2.30;;;25.60;73.60;;;;;;4997733;28;20687;-59
2021/07/25 03:56:54;;;;;;;3.20;2.90;;;25.60;73.70;;;;;;4995532;28;20226;-59
2021/07/25 03:59:21;;;;;;;3.58;2.88;;;25.60;73.60;;;;;;5006878;28;20200;-59
2021/07/25 04:01:47;;;;;;;3.58;2.95;;;25.60;73.70;;;;;;5000270;28;20321;-58
2021/07/25 04:04:14;;;;;;;2.72;2.45;;;25.60;73.80;;;;;;5003107;28;20223;-59
2021/07/25 04:06:40;;;;;;;2.95;2.65;;;25.60;73.70;;;;;;4994120;28;20200;-59
2021/07/25 04:09:07;;;;;;;3.30;2.92;;;25.60;73.70;;;;;;4990742;28;20210;-58
2021/07/25 04:11:33;;;;;;;2.90;2.70;;;25.60;73.70;;;;;;4994502;28;20294;-59
2021/07/25 04:14:00;;;;;;;3.25;2.90;;;25.60;73.70;;;;;;4995936;28;20220;-59
2021/07/25 04:16:26;;;;;;;2.97;2.75;;;25.60;73.70;;;;;;4993842;28;20204;-59
2021/07/25 04:18:53;;;;;;;2.90;2.70;;;25.60;73.80;;;;;;4999339;28;20199;-59
2021/07/25 04:21:19;;;;;;;3.25;2.95;;;25.60;73.70;;;;;;4990906;28;20230;-59
2021/07/25 04:23:45;;;;;;;2.95;2.53;;;25.60;73.70;;;;;;5000235;28;20223;-59
2021/07/25 04:26:12;;;;;;;2.70;2.50;;;25.60;73.80;;;;;;5003362;28;20290;-59
2021/07/25 04:28:38;;;;;;;3.05;2.75;;;25.60;73.70;;;;;;4991123;28;20214;-59
2021/07/25 04:31:05;;;;;;;3.28;2.83;;;25.60;73.60;;;;;;5001538;28;20215;-59
2021/07/25 04:33:32;;;;;;;3.22;2.92;;;25.60;73.70;;;;;;4995056;28;20219;-59
2021/07/25 04:35:59;;;;;;;3.25;2.95;;;25.60;73.70;;;;;;5001094;28;20249;-58
2021/07/25 04:38:25;;;;;;;2.78;2.58;;;25.60;73.70;;;;;;5002707;28;20257;-59
2021/07/25 04:40:52;;;;;;;2.90;2.70;;;25.60;73.70;;;;;;5008624;28;20219;-59
2021/07/25 04:43:18;;;;;;;2.60;2.40;;;25.60;73.70;;;;;;5008168;28;20219;-59
2021/07/25 04:45:45;;;;;;;3.10;2.80;;;25.60;73.70;;;;;;4993311;28;20208;-59
2021/07/25 04:48:11;;;;;;;3.00;2.80;;;25.60;73.70;;;;;;4999028;28;20203;-59
2021/07/25 04:50:38;;;;;;;3.00;2.80;;;25.60;73.70;;;;;;4994120;28;20210;-59
2021/07/25 04:53:04;;;;;;;3.10;2.55;;;25.60;73.80;;;;;;5001347;28;20221;-61
2021/07/25 04:55:31;;;;;;;3.00;2.80;;;25.60;73.70;;;;;;4998045;28;20785;-59
2021/07/25 04:57:57;;;;;;;3.10;2.80;;;25.60;73.70;;;;;;4994503;28;20567;-59
2021/07/25 05:00:24;;;;;;;3.13;2.83;;;25.60;73.70;;;;;;4995262;28;20670;-59
2021/07/25 05:02:57;;;;;;;3.42;2.75;;;25.60;73.60;;;;;;5004590;28;20622;-59
2021/07/25 05:05:23;;;;;;;2.80;2.60;;;25.60;73.70;;;;;;4998491;28;20279;-59
2021/07/25 05:07:50;;;;;;;3.08;2.78;;;25.60;73.60;;;;;;4996893;28;20208;-58
2021/07/25 05:10:16;;;;;;;2.85;2.60;;;25.50;73.60;;;;;;4996781;28;20200;-59
2021/07/25 05:12:42;;;;;;;2.60;2.40;;;25.60;73.60;;;;;;5000161;28;20195;-58
2021/07/25 05:15:09;;;;;;;2.70;2.50;;;25.60;73.60;;;;;;5002030;28;20206;-58
2021/07/25 05:17:35;;;;;;;2.72;2.53;;;25.60;73.60;;;;;;4993762;28;20200;-58
2021/07/25 05:20:02;;;;;;;2.92;2.72;;;25.60;73.70;;;;;;5000661;28;20203;-58
2021/07/25 05:22:28;;;;;;;3.10;2.63;;;25.60;73.60;;;;;;5000928;28;20227;-58
2021/07/25 05:24:55;;;;;;;2.67;2.47;;;25.60;73.60;;;;;;4994422;28;20235;-58
2021/07/25 05:27:21;;;;;;;3.05;2.75;;;25.60;73.60;;;;;;5000761;28;20196;-58
2021/07/25 05:29:47;;;;;;;2.90;2.58;;;25.60;73.60;;;;;;4997406;28;20211;-59
2021/07/25 05:32:14;;;;;;;3.05;2.75;;;25.60;73.50;;;;;;4996508;28;20203;-58
2021/07/25 05:34:40;;;;;;;2.72;2.53;;;25.60;73.60;;;;;;5005793;28;20245;-59
2021/07/25 05:37:07;;;;;;;3.38;3.08;;;25.60;73.50;;;;;;4994198;28;20196;-58
2021/07/25 05:39:33;;;;;;;2.80;2.60;;;25.60;73.60;;;;;;4998312;28;20213;-58
2021/07/25 05:42:00;;;;;;;2.53;2.33;;;25.60;73.50;;;;;;4996841;28;20273;-59
2021/07/25 05:44:26;;;;;;;3.28;2.90;;;25.60;73.50;;;;;;4992172;28;20220;-59
2021/07/25 05:46:53;;;;;;;2.47;2.28;;;25.60;73.50;;;;;;4991861;28;20204;-59
2021/07/25 05:49:20;;;;;;;2.97;2.67;;;25.60;73.50;;;;;;5001069;28;20205;-59
2021/07/25 05:51:47;;;;;;;2.75;2.38;;;25.60;74.20;;;;;;5008100;28;20218;-59
2021/07/25 05:54:13;;;;;;;2.67;2.47;;;25.60;73.60;;;;;;5001103;28;20232;-59
2021/07/25 05:56:39;;;;;;;2.50;2.30;;;25.60;73.40;;;;;;4987545;28;20206;-59
2021/07/25 05:59:10;;;;;;;2.92;2.63;;;25.60;73.50;;;;;;4993636;28;20200;-59
2021/07/25 06:01:36;;;;;;;3.03;2.70;;;25.60;73.50;;;;;;4998588;28;20621;-58
2021/07/25 06:04:03;;;;;;;2.88;2.67;;;25.60;73.50;;;;;;4999257;28;20237;-59
2021/07/25 06:06:30;;;;;;;2.60;2.40;;;25.60;73.50;;;;;;5000693;28;20241;-59
2021/07/25 06:08:56;;;;;;;3.20;2.90;;;25.60;73.50;;;;;;5010973;28;20205;-59
2021/07/25 06:11:23;;;;;;;2.70;2.50;;;25.60;73.50;;;;;;5005616;28;20223;-59
2021/07/25 06:13:49;;;;;;;3.28;2.97;;;25.60;73.50;;;;;;5007257;28;20223;-59
2021/07/25 06:16:15;;;;;;;2.67;2.47;;;25.60;73.40;;;;;;4994014;28;20199;-59
2021/07/25 06:18:45;;;;;;;2.78;2.42;;;25.60;73.40;;;;;;5007446;28;20211;-59
2021/07/25 06:21:12;;;;;;;2.60;2.40;;;25.60;73.50;;;;;;4999398;28;20228;-59
2021/07/25 06:23:38;;;;;;;2.97;2.67;;;25.60;73.40;;;;;;5003912;28;20222;-59
2021/07/25 06:26:07;;;;;;;2.60;2.40;;;25.60;73.30;;;;;;4992468;28;20214;-59
2021/07/25 06:28:33;;;;;;;2.72;2.50;;;25.60;73.30;;;;;;4997564;28;20269;-59
2021/07/25 06:31:00;;;;;;;2.90;2.60;;;25.60;73.10;;;;;;4996520;28;20204;-59
2021/07/25 06:33:29;;;;;;;2.55;2.35;;;25.60;73.20;;;;;;4994903;28;20223;-59
2021/07/25 06:35:55;;;;;;;2.80;2.40;;;25.60;73.20;;;;;;4992081;28;20250;-59
2021/07/25 06:38:22;;;;;;;2.45;2.25;;;25.60;73.20;;;;;;4992548;28;20208;-59
2021/07/25 06:40:48;;;;;;;3.08;2.67;;;25.60;73.20;;;;;;4992352;28;20682;-59
2021/07/25 06:43:14;;;;;;;3.00;2.70;;;25.60;73.10;;;;;;4999850;28;20784;-59
2021/07/25 06:45:41;;;;;;;3.40;2.60;;;25.60;73.10;;;;;;5009994;28;20540;-59
2021/07/25 06:48:07;;;;;;;3.15;2.90;;;25.60;73.80;;;;;;4997035;28;20655;-59
2021/07/25 06:50:34;;;;;;;2.40;2.20;;;25.60;73.00;;;;;;4991843;28;20303;-59
2021/07/25 06:53:00;;;;;;;2.38;2.15;;;25.60;72.90;;;;;;4999034;28;20231;-59
2021/07/25 06:55:27;;;;;;;2.67;2.47;;;25.60;73.00;;;;;;5009783;28;20282;-59
2021/07/25 06:57:53;;;;;;;2.67;2.42;;;25.60;73.00;;;;;;4995133;28;20208;-59
2021/07/25 07:00:20;;;;;;;2.30;2.10;;;25.60;72.60;;;;;;4993991;28;20290;-59
2021/07/25 07:02:46;;;;;;;2.85;2.58;;;25.60;72.60;;;;;;4990616;28;20234;-58
2021/07/25 07:05:13;;;;;;;2.40;2.20;;;25.60;72.70;;;;;;4991384;28;20607;-58
2021/07/25 07:07:39;;;;;;;2.50;2.30;;;25.60;72.70;;;;;;4997352;28;20582;-58
2021/07/25 07:10:06;;;;;;;2.60;2.10;;;25.70;72.90;;;;;;5001460;28;20199;-58
2021/07/25 07:12:32;;;;;;;2.47;2.28;;;25.70;73.40;;;;;;4996247;28;20195;-58
2021/07/25 07:14:59;;;;;;;2.40;2.20;;;25.70;73.50;;;;;;5004638;28;20203;-58
2021/07/25 07:17:25;;;;;;;3.28;2.45;;;25.70;73.30;;;;;;4989330;28;20229;-58
2021/07/25 07:19:52;;;;;;;2.35;2.15;;;25.70;73.40;;;;;;4997377;28;20205;-59
2021/07/25 07:22:18;;;;;;;3.42;2.58;;;25.70;73.10;;;;;;5001189;28;20258;-59
2021/07/25 07:24:45;;;;;;;2.90;2.60;;;25.70;73.10;;;;;;5003203;28;20231;-60
2021/07/25 07:27:14;;;;;;;4.20;3.05;;;25.70;73.50;;;;;;4989090;28;20291;-58
2021/07/25 07:29:41;;;;;;;3.22;2.88;;;25.70;73.80;;;;;;4994618;28;20233;-55
2021/07/25 07:32:07;;;;;;;4.00;3.08;;;25.60;71.70;;;;;;4999253;28;20877;-57
2021/07/25 07:34:34;;;;;;;4.47;3.75;;;25.40;72.20;;;;;;5002999;28;20233;-57
2021/07/25 07:37:00;;;;;;;6.15;3.60;;;25.30;71.00;;;;;;4986841;28;20767;-59
2021/07/25 07:39:27;;;;;;;6.50;3.13;;;25.30;70.90;;;;;;4986726;28;20210;-63
2021/07/25 07:41:54;;;;;;;4.50;3.10;;;25.40;70.90;;;;;;4994828;28;20886;-59
2021/07/25 07:44:20;;;;;;;5.55;3.30;;;25.40;70.60;;;;;;4999340;28;20688;-58
2021/07/25 07:46:47;;;;;;;4.93;3.47;;;25.50;70.50;;;;;;4992482;28;20640;-61
2021/07/25 07:49:13;;;;;;;3.47;3.17;;;25.50;70.30;;;;;;5002571;28;20203;-59
2021/07/25 07:51:40;;;;;;;5.55;3.40;;;25.60;70.50;;;;;;4998099;28;20203;-59
2021/07/25 07:54:06;;;;;;;3.88;3.53;;;25.60;70.80;;;;;;4995460;28;20719;-60
2021/07/25 07:56:35;;;;;;;3.90;3.38;;;25.60;70.80;;;;;;4990478;28;20694;-60
2021/07/25 07:59:01;;;;;;;3.90;3.50;;;25.60;70.50;;;;;;4992910;28;20683;-60
2021/07/25 08:01:28;;;;;;;3.50;3.20;;;25.60;70.40;;;;;;4986447;28;20224;-60
2021/07/25 08:03:55;;;;;;;3.08;2.60;;;25.60;70.40;;;;;;4991157;28;20234;-60
2021/07/25 08:06:21;;;;;;;3.85;2.92;;;25.60;70.20;;;;;;4995992;28;20219;-59
2021/07/25 08:08:47;;;;;;;5.60;2.97;;;25.60;70.30;;;;;;4983988;28;20203;-59
2021/07/25 08:11:14;;;;;;;3.42;3.13;;;25.60;70.30;;;;;;4993637;28;20200;-61
2021/07/25 08:13:43;;;;;;;3.60;3.00;;;25.60;70.30;;;;;;4994028;28;20303;-60
2021/07/25 08:16:09;;;;;;;5.55;3.33;;;25.60;70.10;;;;;;4999075;28;20545;-59
2021/07/25 08:18:35;;;;;;;3.17;2.85;;;25.60;70.00;;;;;;4997627;28;20621;-60
2021/07/25 08:21:02;;;;;;;3.95;3.65;;;25.60;69.80;;;;;;5000532;28;20567;-60
2021/07/25 08:23:28;;;;;;;3.15;2.92;;;25.60;69.70;;;;;;4995547;28;20678;-60
2021/07/25 08:25:55;;;;;;;3.42;3.13;;;25.60;69.60;;;;;;4998151;28;20214;-60
2021/07/25 08:28:21;;;;;;;3.45;2.88;;;25.60;69.60;;;;;;4992408;28;20208;-60
2021/07/25 08:30:48;;;;;;;5.50;3.08;;;25.60;69.50;;;;;;4993593;28;20208;-59
2021/07/25 08:33:14;;;;;;;3.25;2.95;;;25.60;69.50;;;;;;4992238;28;20240;-59
2021/07/25 08:35:40;;;;;;;3.30;2.97;;;25.60;69.50;;;;;;5009057;28;20669;-60
2021/07/25 08:38:07;;;;;;;3.50;3.20;;;25.60;69.50;;;;;;5012817;28;20559;-59
2021/07/25 08:40:33;;;;;;;3.50;3.17;;;25.60;69.60;;;;;;4996515;28;20203;-59
2021/07/25 08:43:00;;;;;;;3.00;2.78;;;25.60;69.70;;;;;;5002174;28;20232;-60
2021/07/25 08:45:26;;;;;;;3.08;2.80;;;25.60;69.80;;;;;;4998088;28;20200;-60
2021/07/25 08:47:53;;;;;;;4.55;2.90;;;25.60;70.00;;;;;;5004839;28;20207;-59
2021/07/25 08:50:25;;;;;;;6.47;3.03;;;25.60;70.00;;;;;;5004842;28;20654;-59
2021/07/25 08:52:52;;;;;;;3.42;3.00;;;25.60;70.20;;;;;;5012456;28;20258;-60
2021/07/25 08:55:18;;;;;;;2.92;2.72;;;25.60;70.20;;;;;;5008169;28;20207;-59
2021/07/25 08:57:45;;;;;;;3.40;2.88;;;25.60;70.20;;;;;;5002855;28;20294;-59
2021/07/25 09:00:11;;;;;;;5.38;3.45;;;25.60;70.20;;;;;;5008235;28;20286;-59
2021/07/25 09:02:38;;;;;;;4.32;3.55;;;25.60;70.20;;;;;;5007592;28;20230;-60
2021/07/25 09:05:04;;;;;;;3.30;3.00;;;25.60;70.20;;;;;;4991197;28;20222;-60
2021/07/25 09:07:31;;;;;;;4.63;3.17;;;25.60;70.40;;;;;;4991316;28;20195;-60
2021/07/25 09:09:57;;;;;;;5.20;2.75;;;25.60;70.50;;;;;;4995973;28;20211;-60
2021/07/25 09:12:25;;;;;;;2.83;2.60;;;25.60;70.60;;;;;;4993457;28;20215;-60
2021/07/25 09:14:51;;;;;;;2.95;2.65;;;25.70;70.80;;;;;;4993187;28;20231;-60
2021/07/25 09:17:18;;;;;;;3.55;3.15;;;25.60;70.80;;;;;;4993672;28;20196;-60
2021/07/25 09:19:44;;;;;;;3.25;2.65;;;25.70;70.90;;;;;;4993967;28;20201;-60
2021/07/25 09:22:11;;;;;;;3.60;2.80;;;25.70;71.00;;;;;;4993663;28;20233;-60
2021/07/25 09:24:37;;;;;;;4.03;2.80;;;25.70;71.00;;;;;;4993489;28;20211;-60
2021/07/25 09:27:03;;;;;;;3.33;2.97;;;25.70;71.00;;;;;;4992411;28;20334;-60
2021/07/25 09:29:30;;;;;;;3.20;2.80;;;25.70;71.00;;;;;;4982171;28;20212;-60
2021/07/25 09:31:56;;;;;;;3.20;2.90;;;25.70;71.00;;;;;;4977628;28;20206;-61
2021/07/25 09:34:23;;;;;;;3.08;2.78;;;25.70;71.10;;;;;;4993260;28;20203;-60
2021/07/25 09:36:49;;;;;;;3.35;2.60;;;25.70;71.10;;;;;;4991313;28;20203;-60
2021/07/25 09:39:16;;;;;;;3.28;2.72;;;25.70;71.10;;;;;;4993296;28;20698;-60
2021/07/25 09:41:43;;;;;;;3.00;2.70;;;25.70;71.10;;;;;;4993982;28;20674;-60
2021/07/25 09:44:09;;;;;;;3.28;2.63;;;25.70;71.10;;;;;;4992647;28;20270;-59
2021/07/25 09:46:36;;;;;;;3.60;3.00;;;25.70;71.10;;;;;;4990316;28;20551;-61
2021/07/25 09:49:02;;;;;;;3.20;2.90;;;25.70;71.20;;;;;;4992314;28;20678;-60
2021/07/25 09:51:28;;;;;;;3.88;2.80;;;25.70;71.10;;;;;;4993452;28;20623;-60
2021/07/25 09:53:55;;;;;;;3.28;2.92;;;25.70;71.00;;;;;;4990229;28;20203;-60
2021/07/25 09:56:23;;;;;;;3.45;3.00;;;25.70;70.90;;;;;;4992340;28;20582;-57
2021/07/25 09:58:50;;;;;;;3.90;3.33;;;25.70;70.70;;;;;;4993088;28;20278;-59
2021/07/25 10:01:16;;;;;;;3.80;3.22;;;25.70;71.00;;;;;;4992994;28;20218;-55
2021/07/25 10:03:43;;;;;;;4.40;3.17;;;25.70;71.10;;;;;;4984513;28;20247;-57
2021/07/25 10:06:09;;;;;;;4.82;3.25;;;25.60;70.30;;;;;;4977629;28;20285;-57
2021/07/25 10:08:35;;;;;;;2.95;2.75;;;25.60;69.80;;;;;;4991839;28;20200;-56
2021/07/25 10:11:02;;;;;;;5.13;3.08;;;25.60;69.60;;;;;;4991243;28;20210;-57
2021/07/25 10:13:29;;;;;;;3.83;2.80;;;25.60;69.40;;;;;;4991669;28;20318;-55
2021/07/25 10:15:55;;;;;;;4.15;3.13;;;25.60;69.30;;;;;;4991090;28;20207;-54
2021/07/25 10:18:22;;;;;;;3.30;3.00;;;25.60;69.70;;;;;;4991345;28;20231;-56
2021/07/25 10:20:49;;;;;;;4.03;3.20;;;25.60;70.00;;;;;;4992483;28;20196;-57
2021/07/25 10:23:15;;;;;;;3.53;3.20;;;25.60;70.20;;;;;;4992087;28;20232;-58
2021/07/25 10:25:41;;;;;;;5.47;3.00;;;25.60;69.90;;;;;;4991852;28;20210;-57
2021/07/25 10:28:08;;;;;;;2.90;2.65;;;25.70;69.80;;;;;;4992272;28;20612;-57
2021/07/25 10:30:34;;;;;;;4.00;2.92;;;25.70;69.40;;;;;;4991903;28;20679;-57
2021/07/25 10:33:01;;;;;;;4.05;2.92;;;25.70;69.00;;;;;;4992428;28;20609;-57
2021/07/25 10:35:27;;;;;;;3.00;2.70;;;25.70;68.90;;;;;;4991939;28;20585;-57
2021/07/25 10:37:55;;;;;;;5.07;2.97;;;25.60;68.40;;;;;;4991961;28;20208;-57
2021/07/25 10:40:21;;;;;;;3.20;2.90;;;25.70;68.30;;;;;;4990890;28;20235;-57
2021/07/25 10:42:48;;;;;;;3.58;2.83;;;25.60;68.10;;;;;;4990908;28;20230;-57
2021/07/25 10:45:14;;;;;;;3.35;2.78;;;25.70;68.00;;;;;;4991812;28;20210;-57
2021/07/25 10:47:42;;;;;;;3.15;2.85;;;25.70;68.00;;;;;;4992248;28;20208;-57
2021/07/25 10:50:08;;;;;;;3.17;2.88;;;25.60;67.80;;;;;;4992343;28;20248;-57
2021/07/25 10:52:34;;;;;;;2.97;2.70;;;25.70;67.90;;;;;;4991691;28;20228;-57
2021/07/25 10:55:01;;;;;;;2.92;2.58;;;25.70;68.00;;;;;;4990829;28;20200;-56
2021/07/25 10:57:27;;;;;;;2.80;2.55;;;25.70;68.10;;;;;;4992116;28;20204;-56
2021/07/25 10:59:55;;;;;;;3.33;2.67;;;25.70;68.00;;;;;;4991862;28;20291;-56
2021/07/25 11:02:22;;;;;;;3.58;3.05;;;25.70;68.00;;;;;;4991627;28;20239;-58
2021/07/25 11:04:48;;;;;;;4.13;2.70;;;25.70;68.20;;;;;;4991020;28;20730;-59
2021/07/25 11:07:15;;;;;;;3.00;2.50;;;25.70;68.20;;;;;;4991877;28;20641;-56
2021/07/25 11:09:41;;;;;;;4.10;2.88;;;25.70;68.10;;;;;;4990674;28;20214;-64
2021/07/25 11:12:07;;;;;;;3.58;2.78;;;25.60;67.90;;;;;;4986336;28;20241;-64
2021/07/25 11:14:34;;;;;;;2.88;2.45;;;25.60;68.00;;;;;;4990967;28;20635;-64
2021/07/25 11:17:00;;;;;;;3.53;3.03;;;25.70;68.40;;;;;;4991356;28;20656;-64
2021/07/25 11:19:27;;;;;;;2.63;2.42;;;25.70;68.70;;;;;;4991524;28;20207;-65
2021/07/25 11:21:54;;;;;;;3.33;3.03;;;25.70;68.90;;;;;;4991402;28;20227;-64
2021/07/25 11:24:22;;;;;;;2.97;2.60;;;25.70;69.00;;;;;;4991163;28;20208;-64
2021/07/25 11:26:49;;;;;;;2.75;2.55;;;25.70;69.20;;;;;;4987121;28;20235;-64
2021/07/25 11:29:15;;;;;;;3.08;2.70;;;25.80;69.30;;;;;;4987745;28;20200;-65
2021/07/25 11:31:42;;;;;;;3.00;2.70;;;25.80;69.40;;;;;;4989617;28;20866;-65
2021/07/25 11:34:08;;;;;;;2.83;2.63;;;25.70;69.40;;;;;;4987140;28;20266;-64
2021/07/25 11:36:35;;;;;;;2.50;2.30;;;25.80;69.50;;;;;;4991416;28;20312;-65
2021/07/25 11:39:01;;;;;;;2.75;2.20;;;25.80;69.50;;;;;;4989785;28;20212;-65
2021/07/25 11:41:28;;;;;;;2.88;2.60;;;25.80;70.40;;;;;;4989551;28;20228;-65
2021/07/25 11:43:54;;;;;;;3.20;2.90;;;25.80;69.70;;;;;;4986024;28;20230;-66
2021/07/25 11:46:21;;;;;;;2.60;2.40;;;25.80;69.80;;;;;;4990437;28;20196;-66
2021/07/25 11:48:47;;;;;;;2.50;2.30;;;25.80;69.80;;;;;;4991473;28;20248;-65
2021/07/25 11:51:14;;;;;;;2.50;2.30;;;25.80;69.80;;;;;;4985825;28;20668;-65
2021/07/25 11:53:40;;;;;;;2.40;2.20;;;25.80;69.80;;;;;;4995280;28;20548;-64
2021/07/25 11:56:07;;;;;;;2.53;2.33;;;25.80;69.90;;;;;;4995331;28;20670;-65
2021/07/25 11:58:33;;;;;;;2.85;2.53;;;25.80;69.80;;;;;;4994736;28;20696;-65
2021/07/25 12:01:00;;;;;;;2.80;2.60;;;25.80;69.90;;;;;;4992895;28;20207;-64
2021/07/25 12:03:26;;;;;;;2.30;2.10;;;25.80;69.90;;;;;;4993724;28;20227;-65
2021/07/25 12:05:53;;;;;;;2.58;2.38;;;25.80;70.00;;;;;;4996763;28;20204;-65
2021/07/25 12:08:19;;;;;;;3.08;2.78;;;25.80;70.10;;;;;;4994304;28;20853;-64
2021/07/25 12:10:46;;;;;;;2.45;2.25;;;25.80;70.00;;;;;;4983103;28;20661;-64
2021/07/25 12:13:13;;;;;;;2.60;2.40;;;25.80;70.00;;;;;;4991996;28;20196;-54
2021/07/25 12:15:40;;;;;;;2.90;2.70;;;25.80;69.60;;;;;;5004228;28;20656;-55
2021/07/25 12:18:08;;;;;;;3.03;2.58;;;25.80;69.70;;;;;;5003550;28;20218;-55
2021/07/25 12:20:36;;;;;;;3.05;2.80;;;25.80;69.10;;;;;;4992660;28;20262;-53
2021/07/25 12:23:02;;;;;;;2.90;2.55;;;25.80;69.00;;;;;;4993531;28;20228;-54
2021/07/25 12:25:29;;;;;;;3.17;2.80;;;25.80;68.90;;;;;;4994488;28;20203;-54
2021/07/25 12:27:55;;;;;;;3.20;2.90;;;25.70;68.70;;;;;;4995008;28;20208;-53
2021/07/25 12:30:22;;;;;;;4.53;3.28;;;25.70;68.40;;;;;;4994832;28;20707;-56
2021/07/25 12:32:48;;;;;;;3.28;3.00;;;25.70;68.00;;;;;;4992429;28;20210;-58
2021/07/25 12:35:14;;;;;;;3.25;2.95;;;25.70;67.90;;;;;;4991643;28;20625;-55
2021/07/25 12:37:40;;;;;;;3.22;2.92;;;25.70;67.90;;;;;;4993848;28;20287;-57
2021/07/25 12:40:07;;;;;;;3.72;3.25;;;25.70;67.90;;;;;;4994368;28;20299;-57
2021/07/25 12:42:33;;;;;;;3.33;2.88;;;25.70;67.70;;;;;;4993495;28;20236;-57
2021/07/25 12:45:00;;;;;;;3.50;3.17;;;25.70;67.80;;;;;;4994020;28;20210;-57